sensor_id;sensor_type;location;lat;lon;timestamp;pressure;altitude;pressure_sealevel;temperature;humidity
53011;BME280;42803;55.762;38.084;2023-03-08T00:01:38;98481.97;;;-6.80;100.00
53011;BME280;42803;55.762;38.084;2023-03-08T00:04:08;98482.75;;;-6.74;100.00
53011;BME280;42803;55.762;38.084;2023-03-08T00:06:38;98480.78;;;-6.69;100.00
53011;BME280;42803;55.762;38.084;2023-03-08T00:09:08;98478.97;;;-6.70;100.00
53011;BME280;42803;55.762;38.084;2023-03-08T00:11:38;98491.09;;;-6.75;100.00
53011;BME280;42803;55.762;38.084;2023-03-08T00:14:06;98480.75;;;-6.76;100.00
53011;BME280;42803;55.762;38.084;2023-03-08T00:16:35;98479.84;;;-6.77;100.00
53011;BME280;42803;55.762;38.084;2023-03-08T00:19:04;98483.50;;;-6.75;100.00
53011;BME280;42803;55.762;38.084;2023-03-08T00:21:34;98487.44;;;-6.77;100.00
53011;BME280;42803;55.762;38.084;2023-03-08T00:24:04;98490.16;;;-6.75;100.00
53011;BME280;42803;55.762;38.084;2023-03-08T00:26:33;98488.91;;;-6.72;100.00
53011;BME280;42803;55.762;38.084;2023-03-08T00:29:02;98488.91;;;-6.72;100.00
53011;BME280;42803;55.762;38.084;2023-03-08T00:31:31;98490.03;;;-6.70;100.00
53011;BME280;42803;55.762;38.084;2023-03-08T00:34:01;98484.63;;;-6.66;100.00
53011;BME280;42803;55.762;38.084;2023-03-08T00:36:30;98490.28;;;-6.61;100.00
53011;BME280;42803;55.762;38.084;2023-03-08T00:39:00;98491.19;;;-6.60;100.00
53011;BME280;42803;55.762;38.084;2023-03-08T00:41:30;98488.31;;;-6.56;100.00
53011;BME280;42803;55.762;38.084;2023-03-08T00:43:59;98479.66;;;-6.51;100.00
53011;BME280;42803;55.762;38.084;2023-03-08T00:46:28;98493.44;;;-6.49;100.00
53011;BME280;42803;55.762;38.084;2023-03-08T00:48:57;98494.56;;;-6.47;100.00
53011;BME280;42803;55.762;38.084;2023-03-08T00:51:26;98491.69;;;-6.43;100.00
53011;BME280;42803;55.762;38.084;2023-03-08T00:53:55;98494.59;;;-6.40;100.00
53011;BME280;42803;55.762;38.084;2023-03-08T00:56:25;98490.09;;;-6.35;100.00
53011;BME280;42803;55.762;38.084;2023-03-08T00:58:55;98499.72;;;-6.33;100.00
53011;BME280;42803;55.762;38.084;2023-03-08T01:01:25;98500.63;;;-6.32;100.00
53011;BME280;42803;55.762;38.084;2023-03-08T01:03:54;98506.63;;;-6.32;100.00
53011;BME280;42803;55.762;38.084;2023-03-08T01:06:23;98512.09;;;-6.29;100.00
53011;BME280;42803;55.762;38.084;2023-03-08T01:08:52;98503.75;;;-6.28;100.00
53011;BME280;42803;55.762;38.084;2023-03-08T01:11:23;98509.91;;;-6.26;100.00
53011;BME280;42803;55.762;38.084;2023-03-08T01:13:54;98497.59;;;-6.23;100.00
53011;BME280;42803;55.762;38.084;2023-03-08T01:16:24;98501.41;;;-6.19;100.00
53011;BME280;42803;55.762;38.084;2023-03-08T01:18:54;98501.41;;;-6.19;100.00
53011;BME280;42803;55.762;38.084;2023-03-08T01:21:25;98500.19;;;-6.16;100.00
53011;BME280;42803;55.762;38.084;2023-03-08T01:23:55;98500.38;;;-6.14;100.00
53011;BME280;42803;55.762;38.084;2023-03-08T01:26:25;98498.19;;;-6.11;100.00
53011;BME280;42803;55.762;38.084;2023-03-08T01:28:57;98496.78;;;-6.09;100.00
53011;BME280;42803;55.762;38.084;2023-03-08T01:31:28;98497.84;;;-6.07;100.00
53011;BME280;42803;55.762;38.084;2023-03-08T01:33:59;98494.41;;;-6.07;100.00
53011;BME280;42803;55.762;38.084;2023-03-08T01:36:28;98495.69;;;-6.04;100.00
53011;BME280;42803;55.762;38.084;2023-03-08T01:38:59;98500.44;;;-6.00;100.00
53011;BME280;42803;55.762;38.084;2023-03-08T01:41:30;98495.00;;;-5.96;100.00
53011;BME280;42803;55.762;38.084;2023-03-08T01:44:02;98494.84;;;-5.90;100.00
53011;BME280;42803;55.762;38.084;2023-03-08T01:46:31;98489.78;;;-5.83;100.00
53011;BME280;42803;55.762;38.084;2023-03-08T01:49:32;98490.34;;;-5.78;100.00
53011;BME280;42803;55.762;38.084;2023-03-08T01:52:07;98483.81;;;-5.76;100.00
53011;BME280;42803;55.762;38.084;2023-03-08T01:54:40;98487.63;;;-5.73;100.00
53011;BME280;42803;55.762;38.084;2023-03-08T01:57:15;98493.81;;;-5.71;100.00
53011;BME280;42803;55.762;38.084;2023-03-08T01:59:47;98485.47;;;-5.70;100.00
53011;BME280;42803;55.762;38.084;2023-03-08T02:02:21;98494.72;;;-5.70;100.00
53011;BME280;42803;55.762;38.084;2023-03-08T02:04:54;98493.44;;;-5.74;100.00
53011;BME280;42803;55.762;38.084;2023-03-08T02:07:25;98488.34;;;-5.74;100.00
53011;BME280;42803;55.762;38.084;2023-03-08T02:09:54;98489.81;;;-5.76;100.00
53011;BME280;42803;55.762;38.084;2023-03-08T02:12:24;98488.53;;;-5.79;100.00
53011;BME280;42803;55.762;38.084;2023-03-08T02:14:56;98486.31;;;-5.91;100.00
53011;BME280;42803;55.762;38.084;2023-03-08T02:17:27;98477.59;;;-5.93;100.00
53011;BME280;42803;55.762;38.084;2023-03-08T02:20:02;98483.59;;;-5.92;100.00
53011;BME280;42803;55.762;38.084;2023-03-08T02:22:38;98490.88;;;-5.95;100.00
53011;BME280;42803;55.762;38.084;2023-03-08T02:25:12;98491.38;;;-5.98;100.00
53011;BME280;42803;55.762;38.084;2023-03-08T02:27:41;98483.38;;;-6.01;100.00
53011;BME280;42803;55.762;38.084;2023-03-08T02:30:13;98492.09;;;-6.06;100.00
53011;BME280;42803;55.762;38.084;2023-03-08T02:32:43;98497.69;;;-6.08;100.00
53011;BME280;42803;55.762;38.084;2023-03-08T02:35:12;98504.19;;;-6.10;100.00
53011;BME280;42803;55.762;38.084;2023-03-08T02:37:42;98505.13;;;-6.10;100.00
53011;BME280;42803;55.762;38.084;2023-03-08T02:40:12;98497.84;;;-6.07;100.00
53011;BME280;42803;55.762;38.084;2023-03-08T02:42:41;98502.75;;;-6.08;100.00
53011;BME280;42803;55.762;38.084;2023-03-08T02:45:11;98497.69;;;-6.08;100.00
53011;BME280;42803;55.762;38.084;2023-03-08T02:47:40;98497.69;;;-6.08;100.00
53011;BME280;42803;55.762;38.084;2023-03-08T02:50:10;98501.47;;;-6.12;100.00
53011;BME280;42803;55.762;38.084;2023-03-08T02:52:39;98499.50;;;-6.07;100.00
53011;BME280;42803;55.762;38.084;2023-03-08T02:55:10;98498.78;;;-6.06;100.00
53011;BME280;42803;55.762;38.084;2023-03-08T02:57:39;98499.34;;;-6.02;100.00
53011;BME280;42803;55.762;38.084;2023-03-08T03:00:09;98502.59;;;-6.03;100.00
53011;BME280;42803;55.762;38.084;2023-03-08T03:02:39;98502.06;;;-6.00;100.00
53011;BME280;42803;55.762;38.084;2023-03-08T03:05:08;98498.81;;;-5.99;100.00
53011;BME280;42803;55.762;38.084;2023-03-08T03:07:41;98503.69;;;-6.01;100.00
53011;BME280;42803;55.762;38.084;2023-03-08T03:10:17;98499.88;;;-6.04;100.00
53011;BME280;42803;55.762;38.084;2023-03-08T03:12:46;98507.84;;;-6.08;100.00
53011;BME280;42803;55.762;38.084;2023-03-08T03:15:19;98506.16;;;-6.15;100.00
53011;BME280;42803;55.762;38.084;2023-03-08T03:17:52;98503.56;;;-6.22;100.00
53011;BME280;42803;55.762;38.084;2023-03-08T03:20:21;98501.16;;;-6.35;100.00
53011;BME280;42803;55.762;38.084;2023-03-08T03:22:50;98498.56;;;-6.42;100.00
53011;BME280;42803;55.762;38.084;2023-03-08T03:25:26;98499.63;;;-6.47;100.00
53011;BME280;42803;55.762;38.084;2023-03-08T03:27:57;98505.94;;;-6.51;100.00
53011;BME280;42803;55.762;38.084;2023-03-08T03:30:28;98505.38;;;-6.55;100.00
53011;BME280;42803;55.762;38.084;2023-03-08T03:32:57;98506.06;;;-6.56;100.00
53011;BME280;42803;55.762;38.084;2023-03-08T03:35:29;98512.59;;;-6.58;100.00
53011;BME280;42803;55.762;38.084;2023-03-08T03:37:59;98507.84;;;-6.63;100.00
53011;BME280;42803;55.762;38.084;2023-03-08T03:40:30;98513.84;;;-6.62;100.00
53011;BME280;42803;55.762;38.084;2023-03-08T03:43:02;98517.63;;;-6.66;100.00
53011;BME280;42803;55.762;38.084;2023-03-08T03:45:31;98520.88;;;-6.67;100.00
53011;BME280;42803;55.762;38.084;2023-03-08T03:48:01;98518.13;;;-6.68;100.00
53011;BME280;42803;55.762;38.084;2023-03-08T03:50:31;98509.44;;;-6.70;100.00
53011;BME280;42803;55.762;38.084;2023-03-08T03:53:06;98516.84;;;-6.72;100.00
53011;BME280;42803;55.762;38.084;2023-03-08T03:55:37;98522.44;;;-6.74;100.00
53011;BME280;42803;55.762;38.084;2023-03-08T03:58:07;98520.81;;;-6.74;100.00
53011;BME280;42803;55.762;38.084;2023-03-08T04:00:36;98516.13;;;-6.71;100.00
53011;BME280;42803;55.762;38.084;2023-03-08T04:03:15;98513.44;;;-6.65;100.00
53011;BME280;42803;55.762;38.084;2023-03-08T04:05:44;98519.81;;;-6.62;100.00
53011;BME280;42803;55.762;38.084;2023-03-08T04:08:14;98514.97;;;-6.60;100.00
53011;BME280;42803;55.762;38.084;2023-03-08T04:10:45;98521.84;;;-6.59;100.00
53011;BME280;42803;55.762;38.084;2023-03-08T04:13:14;98514.81;;;-6.54;100.00
53011;BME280;42803;55.762;38.084;2023-03-08T04:15:43;98515.75;;;-6.47;100.00
53011;BME280;42803;55.762;38.084;2023-03-08T04:18:12;98513.41;;;-6.45;100.00
53011;BME280;42803;55.762;38.084;2023-03-08T04:20:45;98510.75;;;-6.40;100.00
53011;BME280;42803;55.762;38.084;2023-03-08T04:23:15;98514.97;;;-6.33;100.00
53011;BME280;42803;55.762;38.084;2023-03-08T04:25:47;98518.06;;;-6.28;100.00
53011;BME280;42803;55.762;38.084;2023-03-08T04:28:16;98514.28;;;-6.25;100.00
53011;BME280;42803;55.762;38.084;2023-03-08T04:30:45;98521.75;;;-6.19;100.00
53011;BME280;42803;55.762;38.084;2023-03-08T04:33:16;98519.97;;;-6.13;100.00
53011;BME280;42803;55.762;38.084;2023-03-08T04:35:48;98526.13;;;-6.11;100.00
53011;BME280;42803;55.762;38.084;2023-03-08T04:38:20;98528.88;;;-6.09;100.00
53011;BME280;42803;55.762;38.084;2023-03-08T04:40:55;98523.81;;;-6.09;100.00
53011;BME280;42803;55.762;38.084;2023-03-08T04:44:07;98532.56;;;-6.00;100.00
53011;BME280;42803;55.762;38.084;2023-03-08T04:46:41;98540.75;;;-5.89;100.00
53011;BME280;42803;55.762;38.084;2023-03-08T04:49:17;98540.59;;;-5.83;100.00
53011;BME280;42803;55.762;38.084;2023-03-08T04:51:51;98547.88;;;-5.79;100.00
53011;BME280;42803;55.762;38.084;2023-03-08T04:54:22;98545.72;;;-5.76;100.00
53011;BME280;42803;55.762;38.084;2023-03-08T04:57:00;98545.94;;;-5.67;100.00
53011;BME280;42803;55.762;38.084;2023-03-08T04:59:31;98551.19;;;-5.66;100.00
53011;BME280;42803;55.762;38.084;2023-03-08T05:02:03;98553.25;;;-5.56;100.00
53011;BME280;42803;55.762;38.084;2023-03-08T05:04:34;98566.47;;;-5.58;100.00
53011;BME280;42803;55.762;38.084;2023-03-08T05:07:03;98566.84;;;-5.63;100.00
53011;BME280;42803;55.762;38.084;2023-03-08T05:09:35;98567.94;;;-5.60;100.00
53011;BME280;42803;55.762;38.084;2023-03-08T05:12:06;98571.91;;;-5.63;100.00
53011;BME280;42803;55.762;38.084;2023-03-08T05:14:49;98570.13;;;-5.56;100.00
53011;BME280;42803;55.762;38.084;2023-03-08T05:17:18;98573.75;;;-5.54;100.00
53011;BME280;42803;55.762;38.084;2023-03-08T05:19:48;98566.69;;;-5.57;100.00
53011;BME280;42803;55.762;38.084;2023-03-08T05:22:22;98563.94;;;-5.58;100.00
53011;BME280;42803;55.762;38.084;2023-03-08T05:24:55;98563.78;;;-5.60;100.00
53011;BME280;42803;55.762;38.084;2023-03-08T05:27:26;98557.44;;;-5.56;100.00
53011;BME280;42803;55.762;38.084;2023-03-08T05:29:59;98556.53;;;-5.57;100.00
53011;BME280;42803;55.762;38.084;2023-03-08T05:32:31;98548.91;;;-5.57;100.00
53011;BME280;42803;55.762;38.084;2023-03-08T05:35:00;98558.00;;;-5.52;100.00
53011;BME280;42803;55.762;38.084;2023-03-08T05:37:33;98556.56;;;-5.43;100.00
53011;BME280;42803;55.762;38.084;2023-03-08T05:40:04;98565.09;;;-5.42;100.00
53011;BME280;42803;55.762;38.084;2023-03-08T05:42:40;98556.78;;;-5.34;100.00
53011;BME280;42803;55.762;38.084;2023-03-08T05:45:10;98547.38;;;-5.21;100.00
53011;BME280;42803;55.762;38.084;2023-03-08T05:47:40;98545.22;;;-5.18;100.00
53011;BME280;42803;55.762;38.084;2023-03-08T05:50:10;98549.22;;;-5.05;100.00
53011;BME280;42803;55.762;38.084;2023-03-08T05:52:41;98546.31;;;-5.01;100.00
53011;BME280;42803;55.762;38.084;2023-03-08T05:55:14;98543.63;;;-4.96;100.00
53011;BME280;42803;55.762;38.084;2023-03-08T05:57:46;98536.69;;;-4.97;100.00
53011;BME280;42803;55.762;38.084;2023-03-08T06:00:16;98538.69;;;-4.94;100.00
53011;BME280;42803;55.762;38.084;2023-03-08T06:02:50;98536.91;;;-4.88;100.00
53011;BME280;42803;55.762;38.084;2023-03-08T06:05:20;98543.81;;;-4.87;100.00
53011;BME280;42803;55.762;38.084;2023-03-08T06:07:53;98537.81;;;-4.80;100.00
53011;BME280;42803;55.762;38.084;2023-03-08T06:10:22;98537.09;;;-4.72;100.00
53011;BME280;42803;55.762;38.084;2023-03-08T06:12:54;98548.19;;;-4.72;100.00
53011;BME280;42803;55.762;38.084;2023-03-08T06:15:24;98550.00;;;-4.71;100.00
53011;BME280;42803;55.762;38.084;2023-03-08T06:17:55;98547.09;;;-4.67;100.00
53011;BME280;42803;55.762;38.084;2023-03-08T06:20:26;98536.16;;;-4.66;100.00
53011;BME280;42803;55.762;38.084;2023-03-08T06:22:55;98550.75;;;-4.64;100.00
53011;BME280;42803;55.762;38.084;2023-03-08T06:25:24;98551.44;;;-4.58;100.00
53011;BME280;42803;55.762;38.084;2023-03-08T06:27:55;98546.72;;;-4.41;100.00
53011;BME280;42803;55.762;38.084;2023-03-08T06:30:34;98539.63;;;-4.22;100.00
53011;BME280;42803;55.762;38.084;2023-03-08T06:33:04;98540.88;;;-4.19;100.00
53011;BME280;42803;55.762;38.084;2023-03-08T06:35:33;98544.72;;;-4.22;100.00
53011;BME280;42803;55.762;38.084;2023-03-08T06:38:04;98544.50;;;-4.17;100.00
53011;BME280;42803;55.762;38.084;2023-03-08T06:40:38;98547.94;;;-4.09;100.00
53011;BME280;42803;55.762;38.084;2023-03-08T06:43:09;98553.41;;;-3.92;100.00
53011;BME280;42803;55.762;38.084;2023-03-08T06:45:38;98540.81;;;-3.83;100.00
53011;BME280;42803;55.762;38.084;2023-03-08T06:48:07;98541.53;;;-3.77;100.00
53011;BME280;42803;55.762;38.084;2023-03-08T06:50:37;98541.50;;;-3.70;100.00
53011;BME280;42803;55.762;38.084;2023-03-08T06:53:07;98536.19;;;-3.64;100.00
53011;BME280;42803;55.762;38.084;2023-03-08T06:55:45;98530.19;;;-3.64;100.00
53011;BME280;42803;55.762;38.084;2023-03-08T06:58:16;98532.00;;;-3.63;100.00
53011;BME280;42803;55.762;38.084;2023-03-08T07:00:45;98532.94;;;-3.70;100.00
53011;BME280;42803;55.762;38.084;2023-03-08T07:03:14;98527.50;;;-3.80;100.00
53011;BME280;42803;55.762;38.084;2023-03-08T07:05:43;98523.31;;;-3.80;100.00
53011;BME280;42803;55.762;38.084;2023-03-08T07:08:12;98518.94;;;-3.74;100.00
53011;BME280;42803;55.762;38.084;2023-03-08T07:10:41;98517.81;;;-3.69;100.00
53011;BME280;42803;55.762;38.084;2023-03-08T07:13:10;98515.50;;;-3.81;99.90
53011;BME280;42803;55.762;38.084;2023-03-08T07:15:40;98496.34;;;-3.78;100.00
53011;BME280;42803;55.762;38.084;2023-03-08T07:18:09;98495.94;;;-3.67;100.00
53011;BME280;42803;55.762;38.084;2023-03-08T07:20:43;98476.75;;;-3.49;99.83
53011;BME280;42803;55.762;38.084;2023-03-08T07:23:12;98471.56;;;-3.34;99.11
53011;BME280;42803;55.762;38.084;2023-03-08T07:25:41;98474.34;;;-3.17;98.25
53011;BME280;42803;55.762;38.084;2023-03-08T07:28:10;98466.94;;;-3.23;98.04
53011;BME280;42803;55.762;38.084;2023-03-08T07:30:44;98467.41;;;-3.41;97.20
53011;BME280;42803;55.762;38.084;2023-03-08T07:33:13;98462.97;;;-3.28;97.30
53011;BME280;42803;55.762;38.084;2023-03-08T07:35:42;98453.06;;;-3.25;96.99
53011;BME280;42803;55.762;38.084;2023-03-08T07:38:12;98448.94;;;-3.01;97.58
53011;BME280;42803;55.762;38.084;2023-03-08T07:40:42;98446.03;;;-2.81;96.50
53011;BME280;42803;55.762;38.084;2023-03-08T07:43:11;98445.34;;;-2.87;94.22
53011;BME280;42803;55.762;38.084;2023-03-08T07:46:04;98447.88;;;-2.64;93.13
53011;BME280;42803;55.762;38.084;2023-03-08T07:48:33;98437.88;;;-2.31;91.73
53011;BME280;42803;55.762;38.084;2023-03-08T07:51:05;98441.28;;;-2.24;91.29
53011;BME280;42803;55.762;38.084;2023-03-08T07:53:36;98441.13;;;-2.09;90.20
53011;BME280;42803;55.762;38.084;2023-03-08T07:56:05;98428.00;;;-2.12;89.23
53011;BME280;42803;55.762;38.084;2023-03-08T07:58:35;98429.47;;;-1.99;88.74
53011;BME280;42803;55.762;38.084;2023-03-08T08:01:08;98429.94;;;-1.62;89.21
53011;BME280;42803;55.762;38.084;2023-03-08T08:03:37;98411.28;;;-1.61;87.57
53011;BME280;42803;55.762;38.084;2023-03-08T08:06:08;98424.78;;;-1.47;86.66
53011;BME280;42803;55.762;38.084;2023-03-08T08:08:37;98417.69;;;-1.49;85.89
53011;BME280;42803;55.762;38.084;2023-03-08T08:11:11;98424.16;;;-1.28;85.94
53011;BME280;42803;55.762;38.084;2023-03-08T08:13:41;98427.22;;;-1.48;84.71
53011;BME280;42803;55.762;38.084;2023-03-08T08:16:13;98416.72;;;-1.18;84.83
53011;BME280;42803;55.762;38.084;2023-03-08T08:18:43;98421.84;;;-0.85;83.95
53011;BME280;42803;55.762;38.084;2023-03-08T08:21:14;98422.28;;;-0.89;83.33
53011;BME280;42803;55.762;38.084;2023-03-08T08:23:43;98422.28;;;-0.89;82.46
53011;BME280;42803;55.762;38.084;2023-03-08T08:26:14;98423.88;;;-1.07;82.80
53011;BME280;42803;55.762;38.084;2023-03-08T08:28:44;98404.97;;;-1.16;83.27
53011;BME280;42803;55.762;38.084;2023-03-08T08:31:17;98394.28;;;-1.12;83.00
53011;BME280;42803;55.762;38.084;2023-03-08T08:33:47;98391.84;;;-0.94;83.30
53011;BME280;42803;55.762;38.084;2023-03-08T08:36:17;98384.69;;;-0.72;82.71
53011;BME280;42803;55.762;38.084;2023-03-08T08:38:47;98391.50;;;-0.64;81.99
53011;BME280;42803;55.762;38.084;2023-03-08T08:41:17;98392.75;;;-0.52;81.49
53011;BME280;42803;55.762;38.084;2023-03-08T08:43:47;98381.13;;;-0.48;80.44
53011;BME280;42803;55.762;38.084;2023-03-08T08:46:18;98391.72;;;-0.19;80.02
53011;BME280;42803;55.762;38.084;2023-03-08T08:48:47;98400.50;;;-0.26;79.60
53011;BME280;42803;55.762;38.084;2023-03-08T08:51:16;98402.97;;;-0.61;80.89
53011;BME280;42803;55.762;38.084;2023-03-08T08:53:46;98402.88;;;-0.45;80.63
53011;BME280;42803;55.762;38.084;2023-03-08T08:56:16;98400.06;;;-0.72;80.77
53011;BME280;42803;55.762;38.084;2023-03-08T08:58:55;98393.41;;;-0.70;81.29
53011;BME280;42803;55.762;38.084;2023-03-08T09:01:28;98393.75;;;-0.59;81.35
53011;BME280;42803;55.762;38.084;2023-03-08T09:03:57;98403.09;;;-0.68;80.56
53011;BME280;42803;55.762;38.084;2023-03-08T09:06:27;98400.84;;;-0.98;80.46
53011;BME280;42803;55.762;38.084;2023-03-08T09:08:57;98397.66;;;-0.62;80.54
53011;BME280;42803;55.762;38.084;2023-03-08T09:11:27;98397.63;;;-0.80;79.68
53011;BME280;42803;55.762;38.084;2023-03-08T09:13:56;98389.88;;;-0.88;80.42
53011;BME280;42803;55.762;38.084;2023-03-08T09:16:28;98378.38;;;-0.59;80.63
53011;BME280;42803;55.762;38.084;2023-03-08T09:19:00;98385.63;;;-0.63;80.25
53011;BME280;42803;55.762;38.084;2023-03-08T09:21:30;98378.16;;;-0.86;80.44
53011;BME280;42803;55.762;38.084;2023-03-08T09:24:01;98367.03;;;-1.11;80.84
53011;BME280;42803;55.762;38.084;2023-03-08T09:26:30;98368.59;;;-0.96;81.57
53011;BME280;42803;55.762;38.084;2023-03-08T09:29:01;98359.56;;;-0.92;80.77
53011;BME280;42803;55.762;38.084;2023-03-08T09:31:36;98352.78;;;-0.92;80.95
53011;BME280;42803;55.762;38.084;2023-03-08T09:34:06;98356.31;;;-0.83;82.08
53011;BME280;42803;55.762;38.084;2023-03-08T09:36:36;98349.09;;;-0.69;81.01
53011;BME280;42803;55.762;38.084;2023-03-08T09:39:07;98340.13;;;-0.31;79.98
53011;BME280;42803;55.762;38.084;2023-03-08T09:41:51;98339.09;;;-0.25;79.21
53011;BME280;42803;55.762;38.084;2023-03-08T09:47:36;98323.53;;;-0.35;81.03
53011;BME280;42803;55.762;38.084;2023-03-08T09:50:19;98326.88;;;-0.53;80.02
53011;BME280;42803;55.762;38.084;2023-03-08T09:52:52;98318.34;;;-0.87;79.11
53011;BME280;42803;55.762;38.084;2023-03-08T09:55:26;98322.13;;;-0.75;81.28
53011;BME280;42803;55.762;38.084;2023-03-08T09:58:01;98297.72;;;-0.71;81.90
53011;BME280;42803;55.762;38.084;2023-03-08T10:00:31;98305.28;;;-0.72;81.27
53011;BME280;42803;55.762;38.084;2023-03-08T10:03:31;98310.78;;;-0.85;81.86
53011;BME280;42803;55.762;38.084;2023-03-08T10:06:12;98306.31;;;-0.79;81.00
53011;BME280;42803;55.762;38.084;2023-03-08T10:08:48;98291.25;;;-0.50;80.53
53011;BME280;42803;55.762;38.084;2023-03-08T10:11:25;98296.13;;;-0.18;79.94
53011;BME280;42803;55.762;38.084;2023-03-08T10:13:58;98290.25;;;0.00;78.91
53011;BME280;42803;55.762;38.084;2023-03-08T10:16:30;98283.16;;;-0.11;78.18
53011;BME280;42803;55.762;38.084;2023-03-08T10:19:05;98278.78;;;-0.30;78.07
53011;BME280;42803;55.762;38.084;2023-03-08T10:21:39;98262.03;;;-0.35;79.34
53011;BME280;42803;55.762;38.084;2023-03-08T10:24:14;98260.22;;;-0.44;79.10
53011;BME280;42803;55.762;38.084;2023-03-08T10:26:44;98256.59;;;-0.55;79.34
53011;BME280;42803;55.762;38.084;2023-03-08T10:29:13;98251.91;;;-0.59;79.84
53011;BME280;42803;55.762;38.084;2023-03-08T10:31:43;98248.75;;;-0.65;79.76
53011;BME280;42803;55.762;38.084;2023-03-08T10:34:17;98235.78;;;-0.58;79.75
53011;BME280;42803;55.762;38.084;2023-03-08T10:36:49;98238.47;;;-0.83;79.99
53011;BME280;42803;55.762;38.084;2023-03-08T10:39:19;98227.59;;;-1.06;80.08
53011;BME280;42803;55.762;38.084;2023-03-08T10:41:51;98221.59;;;-0.98;80.84
53011;BME280;42803;55.762;38.084;2023-03-08T10:44:31;98222.50;;;-0.89;80.23
53011;BME280;42803;55.762;38.084;2023-03-08T10:47:01;98224.28;;;-0.88;79.88
53011;BME280;42803;55.762;38.084;2023-03-08T10:49:33;98227.03;;;-0.95;80.47
53011;BME280;42803;55.762;38.084;2023-03-08T10:52:02;98218.00;;;-0.83;80.22
53011;BME280;42803;55.762;38.084;2023-03-08T10:54:31;98215.59;;;-0.72;80.26
53011;BME280;42803;55.762;38.084;2023-03-08T10:57:01;98208.34;;;-0.77;79.70
53011;BME280;42803;55.762;38.084;2023-03-08T10:59:32;98204.41;;;-0.82;79.64
53011;BME280;42803;55.762;38.084;2023-03-08T11:02:15;98199.16;;;-0.75;79.21
53011;BME280;42803;55.762;38.084;2023-03-08T11:04:51;98191.47;;;-0.75;79.46
53011;BME280;42803;55.762;38.084;2023-03-08T11:07:24;98183.06;;;-0.65;80.39
53011;BME280;42803;55.762;38.084;2023-03-08T11:10:09;98183.94;;;-0.30;80.43
53011;BME280;42803;55.762;38.084;2023-03-08T11:12:42;98176.38;;;-0.28;78.99
53011;BME280;42803;55.762;38.084;2023-03-08T11:15:13;98171.25;;;-0.28;78.54
53011;BME280;42803;55.762;38.084;2023-03-08T11:17:47;98167.78;;;-0.46;78.08
53011;BME280;42803;55.762;38.084;2023-03-08T11:20:26;98154.34;;;-0.26;78.64
53011;BME280;42803;55.762;38.084;2023-03-08T11:23:04;98148.03;;;-0.30;78.25
53011;BME280;42803;55.762;38.084;2023-03-08T11:25:41;98148.75;;;-0.13;78.37
53011;BME280;42803;55.762;38.084;2023-03-08T11:31:13;98139.78;;;0.09;78.50
53011;BME280;42803;55.762;38.084;2023-03-08T11:36:55;98126.44;;;-0.14;77.21
53011;BME280;42803;55.762;38.084;2023-03-08T11:39:32;98120.63;;;-0.57;77.42
53011;BME280;42803;55.762;38.084;2023-03-08T11:42:07;98117.28;;;-0.47;78.26
53011;BME280;42803;55.762;38.084;2023-03-08T11:44:50;98115.34;;;-0.58;77.81
53011;BME280;42803;55.762;38.084;2023-03-08T11:47:46;98114.28;;;-0.69;78.84
53011;BME280;42803;55.762;38.084;2023-03-08T11:50:22;98099.50;;;-0.54;77.87
53011;BME280;42803;55.762;38.084;2023-03-08T11:53:00;98089.22;;;-0.37;77.53
53011;BME280;42803;55.762;38.084;2023-03-08T11:55:45;98095.91;;;-0.56;78.07
53011;BME280;42803;55.762;38.084;2023-03-08T11:58:23;98083.88;;;-0.57;78.92
53011;BME280;42803;55.762;38.084;2023-03-08T12:00:59;98078.28;;;-0.53;78.61
53011;BME280;42803;55.762;38.084;2023-03-08T12:03:32;98070.91;;;-0.85;79.23
53011;BME280;42803;55.762;38.084;2023-03-08T12:06:05;98061.28;;;-0.96;80.02
53011;BME280;42803;55.762;38.084;2023-03-08T12:08:59;98057.66;;;-0.89;79.67
53011;BME280;42803;55.762;38.084;2023-03-08T12:11:32;98051.19;;;-0.86;79.11
53011;BME280;42803;55.762;38.084;2023-03-08T12:14:13;98045.03;;;-0.96;79.76
53011;BME280;42803;55.762;38.084;2023-03-08T12:16:47;98051.38;;;-1.02;80.25
53011;BME280;42803;55.762;38.084;2023-03-08T12:19:25;98046.38;;;-1.00;79.93
53011;BME280;42803;55.762;38.084;2023-03-08T12:22:09;98047.88;;;-0.93;79.76
53011;BME280;42803;55.762;38.084;2023-03-08T12:24:49;98044.41;;;-0.85;79.87
53011;BME280;42803;55.762;38.084;2023-03-08T12:27:27;98038.25;;;-0.96;81.45
53011;BME280;42803;55.762;38.084;2023-03-08T12:30:04;98037.06;;;-1.08;80.82
53011;BME280;42803;55.762;38.084;2023-03-08T12:32:42;98037.53;;;-1.21;80.58
53011;BME280;42803;55.762;38.084;2023-03-08T12:35:27;98035.84;;;-1.12;80.89
53011;BME280;42803;55.762;38.084;2023-03-08T12:37:59;98026.22;;;-1.14;80.51
53011;BME280;42803;55.762;38.084;2023-03-08T12:40:37;98021.41;;;-1.37;81.10
53011;BME280;42803;55.762;38.084;2023-03-08T12:43:10;98015.81;;;-1.51;81.76
53011;BME280;42803;55.762;38.084;2023-03-08T12:45:41;98008.47;;;-1.48;82.51
53011;BME280;42803;55.762;38.084;2023-03-08T12:48:23;98004.84;;;-1.50;82.79
53011;BME280;42803;55.762;38.084;2023-03-08T12:51:00;97994.47;;;-1.51;83.05
53011;BME280;42803;55.762;38.084;2023-03-08T12:53:35;97991.47;;;-1.56;83.83
53011;BME280;42803;55.762;38.084;2023-03-08T12:56:30;97984.50;;;-1.74;84.74
53011;BME280;42803;55.762;38.084;2023-03-08T12:59:02;97984.34;;;-1.84;84.55
53011;BME280;42803;55.762;38.084;2023-03-08T13:01:35;97979.69;;;-1.88;85.89
53011;BME280;42803;55.762;38.084;2023-03-08T13:04:22;97969.44;;;-1.97;86.10
53011;BME280;42803;55.762;38.084;2023-03-08T13:07:23;97964.31;;;-2.06;86.48
53011;BME280;42803;55.762;38.084;2023-03-08T13:09:57;97961.00;;;-2.13;87.63
53011;BME280;42803;55.762;38.084;2023-03-08T13:12:41;97954.06;;;-2.23;87.67
53011;BME280;42803;55.762;38.084;2023-03-08T13:15:21;97951.47;;;-2.32;87.82
53011;BME280;42803;55.762;38.084;2023-03-08T13:18:02;97952.41;;;-2.23;88.50
53011;BME280;42803;55.762;38.084;2023-03-08T13:20:56;97936.94;;;-2.15;88.43
53011;BME280;42803;55.762;38.084;2023-03-08T13:23:33;97935.88;;;-2.17;88.11